sensor_id;sensor_type;location;lat;lon;timestamp;P1;durP1;ratioP1;P2;durP2;ratioP2
70929;SDS011;58588;48.102;19.682;2023-02-13T00:00:03;92.30;;;33.03;;
70929;SDS011;58588;48.102;19.682;2023-02-13T00:03:06;75.60;;;26.93;;
70929;SDS011;58588;48.102;19.682;2023-02-13T00:06:08;70.47;;;27.27;;
70929;SDS011;58588;48.102;19.682;2023-02-13T00:09:11;85.95;;;27.30;;
70929;SDS011;58588;48.102;19.682;2023-02-13T00:12:14;75.65;;;26.80;;
70929;SDS011;58588;48.102;19.682;2023-02-13T00:15:16;68.28;;;23.45;;
70929;SDS011;58588;48.102;19.682;2023-02-13T00:18:18;70.50;;;24.20;;
70929;SDS011;58588;48.102;19.682;2023-02-13T00:21:20;71.90;;;23.77;;
70929;SDS011;58588;48.102;19.682;2023-02-13T00:24:23;63.43;;;23.77;;
70929;SDS011;58588;48.102;19.682;2023-02-13T00:27:26;61.28;;;22.33;;
70929;SDS011;58588;48.102;19.682;2023-02-13T00:30:28;69.95;;;23.75;;
70929;SDS011;58588;48.102;19.682;2023-02-13T00:33:30;81.95;;;27.30;;
70929;SDS011;58588;48.102;19.682;2023-02-13T00:36:33;65.07;;;24.70;;
70929;SDS011;58588;48.102;19.682;2023-02-13T00:39:40;129.50;;;38.75;;
70929;SDS011;58588;48.102;19.682;2023-02-13T00:42:42;104.95;;;33.92;;
70929;SDS011;58588;48.102;19.682;2023-02-13T00:45:44;67.20;;;24.38;;
70929;SDS011;58588;48.102;19.682;2023-02-13T00:48:46;62.50;;;22.30;;
70929;SDS011;58588;48.102;19.682;2023-02-13T00:51:48;63.90;;;22.77;;
70929;SDS011;58588;48.102;19.682;2023-02-13T00:54:52;53.90;;;20.52;;
70929;SDS011;58588;48.102;19.682;2023-02-13T00:57:54;74.28;;;24.38;;
70929;SDS011;58588;48.102;19.682;2023-02-13T01:00:56;64.17;;;22.27;;
70929;SDS011;58588;48.102;19.682;2023-02-13T01:03:58;63.47;;;22.65;;
70929;SDS011;58588;48.102;19.682;2023-02-13T01:07:00;52.33;;;19.35;;
70929;SDS011;58588;48.102;19.682;2023-02-13T01:10:04;53.40;;;19.67;;
70929;SDS011;58588;48.102;19.682;2023-02-13T01:13:08;53.13;;;21.07;;
70929;SDS011;58588;48.102;19.682;2023-02-13T01:16:10;47.72;;;18.83;;
70929;SDS011;58588;48.102;19.682;2023-02-13T01:19:14;51.70;;;18.52;;
70929;SDS011;58588;48.102;19.682;2023-02-13T01:22:17;48.22;;;18.60;;
70929;SDS011;58588;48.102;19.682;2023-02-13T01:25:21;49.13;;;18.50;;
70929;SDS011;58588;48.102;19.682;2023-02-13T01:28:23;48.45;;;17.08;;
70929;SDS011;58588;48.102;19.682;2023-02-13T01:31:25;47.03;;;17.38;;
70929;SDS011;58588;48.102;19.682;2023-02-13T01:34:27;68.60;;;26.10;;
70929;SDS011;58588;48.102;19.682;2023-02-13T01:37:29;55.67;;;20.30;;
70929;SDS011;58588;48.102;19.682;2023-02-13T01:40:33;44.83;;;16.20;;
70929;SDS011;58588;48.102;19.682;2023-02-13T01:43:48;37.03;;;13.77;;
70929;SDS011;58588;48.102;19.682;2023-02-13T01:46:52;37.33;;;13.40;;
70929;SDS011;58588;48.102;19.682;2023-02-13T01:49:57;35.20;;;12.68;;
70929;SDS011;58588;48.102;19.682;2023-02-13T01:53:05;41.42;;;14.65;;
70929;SDS011;58588;48.102;19.682;2023-02-13T01:56:12;39.37;;;13.87;;
70929;SDS011;58588;48.102;19.682;2023-02-13T01:59:19;40.88;;;14.80;;
70929;SDS011;58588;48.102;19.682;2023-02-13T02:02:25;48.00;;;16.13;;
70929;SDS011;58588;48.102;19.682;2023-02-13T02:05:29;48.60;;;17.55;;
70929;SDS011;58588;48.102;19.682;2023-02-13T02:08:35;43.65;;;16.15;;
70929;SDS011;58588;48.102;19.682;2023-02-13T02:11:43;43.88;;;15.43;;
70929;SDS011;58588;48.102;19.682;2023-02-13T02:14:51;53.97;;;17.92;;
70929;SDS011;58588;48.102;19.682;2023-02-13T02:17:55;57.07;;;18.63;;
70929;SDS011;58588;48.102;19.682;2023-02-13T02:24:45;49.72;;;16.83;;
70929;SDS011;58588;48.102;19.682;2023-02-13T02:28:11;48.78;;;18.05;;
70929;SDS011;58588;48.102;19.682;2023-02-13T02:35:18;50.40;;;17.92;;
70929;SDS011;58588;48.102;19.682;2023-02-13T02:38:32;44.05;;;15.98;;
70929;SDS011;58588;48.102;19.682;2023-02-13T02:41:51;40.37;;;14.50;;
70929;SDS011;58588;48.102;19.682;2023-02-13T02:45:04;46.50;;;15.85;;
70929;SDS011;58588;48.102;19.682;2023-02-13T02:48:16;45.67;;;16.35;;
70929;SDS011;58588;48.102;19.682;2023-02-13T02:51:47;50.33;;;16.57;;
70929;SDS011;58588;48.102;19.682;2023-02-13T02:54:56;47.03;;;16.73;;
70929;SDS011;58588;48.102;19.682;2023-02-13T02:58:09;49.30;;;17.38;;
70929;SDS011;58588;48.102;19.682;2023-02-13T03:01:33;41.50;;;16.60;;
70929;SDS011;58588;48.102;19.682;2023-02-13T03:04:55;47.97;;;18.08;;
70929;SDS011;58588;48.102;19.682;2023-02-13T03:08:19;69.03;;;22.50;;
70929;SDS011;58588;48.102;19.682;2023-02-13T03:11:42;66.63;;;21.42;;
70929;SDS011;58588;48.102;19.682;2023-02-13T03:15:07;35.50;;;14.17;;
70929;SDS011;58588;48.102;19.682;2023-02-13T03:18:10;31.80;;;11.63;;
70929;SDS011;58588;48.102;19.682;2023-02-13T03:21:31;35.50;;;12.45;;
70929;SDS011;58588;48.102;19.682;2023-02-13T03:25:03;30.13;;;11.47;;
70929;SDS011;58588;48.102;19.682;2023-02-13T03:28:12;35.33;;;12.15;;
70929;SDS011;58588;48.102;19.682;2023-02-13T03:31:47;31.70;;;11.10;;
70929;SDS011;58588;48.102;19.682;2023-02-13T03:35:03;37.53;;;12.15;;
70929;SDS011;58588;48.102;19.682;2023-02-13T03:38:40;35.65;;;13.18;;
70929;SDS011;58588;48.102;19.682;2023-02-13T03:41:49;42.17;;;14.30;;
70929;SDS011;58588;48.102;19.682;2023-02-13T03:44:56;41.72;;;14.27;;
70929;SDS011;58588;48.102;19.682;2023-02-13T03:48:21;37.17;;;13.57;;
70929;SDS011;58588;48.102;19.682;2023-02-13T03:51:41;57.88;;;19.77;;
70929;SDS011;58588;48.102;19.682;2023-02-13T03:54:47;41.05;;;15.23;;
70929;SDS011;58588;48.102;19.682;2023-02-13T03:58:12;37.00;;;13.70;;
70929;SDS011;58588;48.102;19.682;2023-02-13T04:01:36;31.52;;;12.52;;
70929;SDS011;58588;48.102;19.682;2023-02-13T04:04:41;38.33;;;13.50;;
70929;SDS011;58588;48.102;19.682;2023-02-13T04:07:49;37.33;;;13.00;;
70929;SDS011;58588;48.102;19.682;2023-02-13T04:10:52;35.28;;;13.05;;
70929;SDS011;58588;48.102;19.682;2023-02-13T04:14:00;36.72;;;12.27;;
70929;SDS011;58588;48.102;19.682;2023-02-13T04:17:07;35.47;;;12.75;;
70929;SDS011;58588;48.102;19.682;2023-02-13T04:20:14;30.60;;;12.07;;
70929;SDS011;58588;48.102;19.682;2023-02-13T04:23:17;30.00;;;11.82;;
70929;SDS011;58588;48.102;19.682;2023-02-13T04:26:20;37.78;;;14.10;;
70929;SDS011;58588;48.102;19.682;2023-02-13T04:29:25;37.70;;;12.43;;
70929;SDS011;58588;48.102;19.682;2023-02-13T04:32:27;32.55;;;12.43;;
70929;SDS011;58588;48.102;19.682;2023-02-13T04:35:29;32.80;;;12.13;;
70929;SDS011;58588;48.102;19.682;2023-02-13T04:38:31;36.47;;;12.23;;
70929;SDS011;58588;48.102;19.682;2023-02-13T04:41:33;33.60;;;12.07;;
70929;SDS011;58588;48.102;19.682;2023-02-13T04:44:37;32.30;;;11.05;;
70929;SDS011;58588;48.102;19.682;2023-02-13T04:47:39;30.40;;;11.23;;
70929;SDS011;58588;48.102;19.682;2023-02-13T04:50:41;31.83;;;11.97;;
70929;SDS011;58588;48.102;19.682;2023-02-13T04:53:46;35.92;;;12.60;;
70929;SDS011;58588;48.102;19.682;2023-02-13T04:56:48;32.50;;;11.35;;
70929;SDS011;58588;48.102;19.682;2023-02-13T04:59:52;34.47;;;10.63;;
70929;SDS011;58588;48.102;19.682;2023-02-13T05:02:54;29.55;;;10.82;;
70929;SDS011;58588;48.102;19.682;2023-02-13T05:06:01;27.63;;;9.65;;
70929;SDS011;58588;48.102;19.682;2023-02-13T05:09:03;24.88;;;9.57;;
70929;SDS011;58588;48.102;19.682;2023-02-13T05:12:07;28.15;;;10.00;;
70929;SDS011;58588;48.102;19.682;2023-02-13T05:15:13;31.20;;;10.43;;
70929;SDS011;58588;48.102;19.682;2023-02-13T05:18:28;25.30;;;10.07;;
70929;SDS011;58588;48.102;19.682;2023-02-13T05:21:30;29.67;;;9.40;;
70929;SDS011;58588;48.102;19.682;2023-02-13T05:24:50;36.33;;;12.15;;
70929;SDS011;58588;48.102;19.682;2023-02-13T05:27:52;36.83;;;11.82;;
70929;SDS011;58588;48.102;19.682;2023-02-13T05:30:55;31.40;;;10.97;;
70929;SDS011;58588;48.102;19.682;2023-02-13T05:33:57;36.60;;;13.18;;
70929;SDS011;58588;48.102;19.682;2023-02-13T05:37:00;33.17;;;12.38;;
70929;SDS011;58588;48.102;19.682;2023-02-13T05:40:02;71.05;;;24.48;;
70929;SDS011;58588;48.102;19.682;2023-02-13T05:43:04;79.57;;;26.90;;
70929;SDS011;58588;48.102;19.682;2023-02-13T05:46:08;83.78;;;30.15;;
70929;SDS011;58588;48.102;19.682;2023-02-13T05:49:11;45.42;;;17.33;;
70929;SDS011;58588;48.102;19.682;2023-02-13T05:52:13;45.50;;;16.60;;
70929;SDS011;58588;48.102;19.682;2023-02-13T05:55:15;39.17;;;14.77;;
70929;SDS011;58588;48.102;19.682;2023-02-13T05:58:18;41.42;;;14.35;;
70929;SDS011;58588;48.102;19.682;2023-02-13T06:01:22;39.33;;;14.10;;
70929;SDS011;58588;48.102;19.682;2023-02-13T06:04:25;40.15;;;13.20;;
70929;SDS011;58588;48.102;19.682;2023-02-13T06:07:27;37.38;;;12.80;;
70929;SDS011;58588;48.102;19.682;2023-02-13T06:10:29;38.50;;;13.23;;
70929;SDS011;58588;48.102;19.682;2023-02-13T06:13:31;37.40;;;13.00;;
70929;SDS011;58588;48.102;19.682;2023-02-13T06:16:34;41.63;;;14.23;;
70929;SDS011;58588;48.102;19.682;2023-02-13T06:19:36;36.80;;;13.15;;
70929;SDS011;58588;48.102;19.682;2023-02-13T06:22:38;36.03;;;12.77;;
70929;SDS011;58588;48.102;19.682;2023-02-13T06:25:40;44.50;;;15.07;;
70929;SDS011;58588;48.102;19.682;2023-02-13T06:28:42;49.40;;;16.65;;
70929;SDS011;58588;48.102;19.682;2023-02-13T06:31:46;43.53;;;15.20;;
70929;SDS011;58588;48.102;19.682;2023-02-13T06:34:48;46.70;;;15.88;;
70929;SDS011;58588;48.102;19.682;2023-02-13T06:37:50;47.05;;;17.05;;
70929;SDS011;58588;48.102;19.682;2023-02-13T06:40:52;55.55;;;20.02;;
70929;SDS011;58588;48.102;19.682;2023-02-13T06:43:59;53.25;;;22.13;;
70929;SDS011;58588;48.102;19.682;2023-02-13T06:47:02;71.65;;;25.55;;
70929;SDS011;58588;48.102;19.682;2023-02-13T06:50:05;68.40;;;26.17;;
70929;SDS011;58588;48.102;19.682;2023-02-13T06:53:07;65.60;;;23.00;;
70929;SDS011;58588;48.102;19.682;2023-02-13T06:56:09;57.38;;;21.55;;
70929;SDS011;58588;48.102;19.682;2023-02-13T06:59:11;64.97;;;23.38;;
70929;SDS011;58588;48.102;19.682;2023-02-13T07:02:15;72.80;;;29.73;;
70929;SDS011;58588;48.102;19.682;2023-02-13T07:05:17;64.50;;;24.83;;
70929;SDS011;58588;48.102;19.682;2023-02-13T07:08:19;65.80;;;24.13;;
70929;SDS011;58588;48.102;19.682;2023-02-13T07:11:21;64.03;;;25.42;;
70929;SDS011;58588;48.102;19.682;2023-02-13T07:14:25;67.07;;;27.42;;
70929;SDS011;58588;48.102;19.682;2023-02-13T07:17:28;79.32;;;30.80;;
70929;SDS011;58588;48.102;19.682;2023-02-13T07:20:32;71.18;;;27.55;;
70929;SDS011;58588;48.102;19.682;2023-02-13T07:23:34;54.50;;;20.70;;
70929;SDS011;58588;48.102;19.682;2023-02-13T07:26:37;49.58;;;19.45;;
70929;SDS011;58588;48.102;19.682;2023-02-13T07:29:39;54.05;;;22.35;;
70929;SDS011;58588;48.102;19.682;2023-02-13T07:32:42;74.93;;;30.05;;
70929;SDS011;58588;48.102;19.682;2023-02-13T07:35:45;67.20;;;25.25;;
70929;SDS011;58588;48.102;19.682;2023-02-13T07:38:47;54.17;;;23.70;;
70929;SDS011;58588;48.102;19.682;2023-02-13T07:41:49;56.60;;;22.13;;
70929;SDS011;58588;48.102;19.682;2023-02-13T07:44:52;61.73;;;24.33;;
70929;SDS011;58588;48.102;19.682;2023-02-13T07:48:00;67.40;;;27.20;;
70929;SDS011;58588;48.102;19.682;2023-02-13T07:51:03;70.88;;;28.42;;
70929;SDS011;58588;48.102;19.682;2023-02-13T07:54:06;68.60;;;25.60;;
70929;SDS011;58588;48.102;19.682;2023-02-13T07:57:08;62.15;;;23.02;;
70929;SDS011;58588;48.102;19.682;2023-02-13T08:00:10;74.57;;;23.95;;
70929;SDS011;58588;48.102;19.682;2023-02-13T08:03:15;52.17;;;21.80;;
70929;SDS011;58588;48.102;19.682;2023-02-13T08:06:17;63.33;;;23.75;;
70929;SDS011;58588;48.102;19.682;2023-02-13T08:09:20;59.27;;;22.23;;
70929;SDS011;58588;48.102;19.682;2023-02-13T08:12:39;44.92;;;18.80;;
70929;SDS011;58588;48.102;19.682;2023-02-13T08:15:42;51.17;;;19.38;;
70929;SDS011;58588;48.102;19.682;2023-02-13T08:18:45;49.17;;;19.25;;
70929;SDS011;58588;48.102;19.682;2023-02-13T08:21:48;40.05;;;15.98;;
70929;SDS011;58588;48.102;19.682;2023-02-13T08:24:50;36.87;;;15.07;;
70929;SDS011;58588;48.102;19.682;2023-02-13T08:27:52;38.65;;;15.85;;
70929;SDS011;58588;48.102;19.682;2023-02-13T08:30:54;40.33;;;16.55;;
70929;SDS011;58588;48.102;19.682;2023-02-13T08:33:57;43.53;;;17.80;;
70929;SDS011;58588;48.102;19.682;2023-02-13T08:37:00;42.03;;;17.10;;
70929;SDS011;58588;48.102;19.682;2023-02-13T08:40:02;41.90;;;16.00;;
70929;SDS011;58588;48.102;19.682;2023-02-13T08:43:05;39.63;;;15.43;;
70929;SDS011;58588;48.102;19.682;2023-02-13T08:46:07;31.02;;;14.43;;
70929;SDS011;58588;48.102;19.682;2023-02-13T08:49:11;36.55;;;14.50;;
70929;SDS011;58588;48.102;19.682;2023-02-13T08:52:13;32.97;;;13.85;;
70929;SDS011;58588;48.102;19.682;2023-02-13T08:55:15;32.83;;;13.43;;
70929;SDS011;58588;48.102;19.682;2023-02-13T08:58:17;31.02;;;13.02;;
70929;SDS011;58588;48.102;19.682;2023-02-13T09:01:20;30.88;;;13.00;;
70929;SDS011;58588;48.102;19.682;2023-02-13T09:04:24;28.42;;;12.20;;
70929;SDS011;58588;48.102;19.682;2023-02-13T09:07:27;29.60;;;11.50;;
70929;SDS011;58588;48.102;19.682;2023-02-13T09:10:29;32.70;;;12.73;;
70929;SDS011;58588;48.102;19.682;2023-02-13T09:13:32;24.05;;;11.27;;
70929;SDS011;58588;48.102;19.682;2023-02-13T09:16:36;26.13;;;9.70;;
70929;SDS011;58588;48.102;19.682;2023-02-13T09:19:39;20.55;;;8.82;;
70929;SDS011;58588;48.102;19.682;2023-02-13T09:22:41;19.33;;;7.95;;
70929;SDS011;58588;48.102;19.682;2023-02-13T09:25:43;38.83;;;17.23;;
70929;SDS011;58588;48.102;19.682;2023-02-13T09:28:47;25.35;;;11.15;;
70929;SDS011;58588;48.102;19.682;2023-02-13T09:31:49;41.08;;;21.80;;
70929;SDS011;58588;48.102;19.682;2023-02-13T09:34:53;25.88;;;12.05;;
70929;SDS011;58588;48.102;19.682;2023-02-13T09:37:55;28.23;;;13.32;;
70929;SDS011;58588;48.102;19.682;2023-02-13T09:41:01;21.73;;;8.90;;
70929;SDS011;58588;48.102;19.682;2023-02-13T09:44:06;22.77;;;8.57;;
70929;SDS011;58588;48.102;19.682;2023-02-13T09:47:33;22.25;;;8.30;;
70929;SDS011;58588;48.102;19.682;2023-02-13T09:50:39;21.17;;;9.00;;
70929;SDS011;58588;48.102;19.682;2023-02-13T09:53:41;17.75;;;8.23;;
70929;SDS011;58588;48.102;19.682;2023-02-13T09:56:53;77.97;;;36.53;;
70929;SDS011;58588;48.102;19.682;2023-02-13T10:00:03;123.90;;;60.17;;
70929;SDS011;58588;48.102;19.682;2023-02-13T10:03:17;32.45;;;15.02;;
70929;SDS011;58588;48.102;19.682;2023-02-13T10:06:23;25.52;;;11.60;;
70929;SDS011;58588;48.102;19.682;2023-02-13T10:09:35;26.50;;;10.85;;
70929;SDS011;58588;48.102;19.682;2023-02-13T10:12:52;22.57;;;10.57;;
70929;SDS011;58588;48.102;19.682;2023-02-13T10:16:01;20.70;;;8.88;;
70929;SDS011;58588;48.102;19.682;2023-02-13T10:19:13;22.98;;;9.60;;
70929;SDS011;58588;48.102;19.682;2023-02-13T10:22:28;24.45;;;10.05;;
70929;SDS011;58588;48.102;19.682;2023-02-13T10:25:37;25.40;;;10.65;;
70929;SDS011;58588;48.102;19.682;2023-02-13T10:28:47;27.57;;;10.53;;
70929;SDS011;58588;48.102;19.682;2023-02-13T10:32:15;21.58;;;9.70;;
70929;SDS011;58588;48.102;19.682;2023-02-13T10:35:20;28.48;;;12.32;;
70929;SDS011;58588;48.102;19.682;2023-02-13T10:38:30;27.50;;;11.63;;
70929;SDS011;58588;48.102;19.682;2023-02-13T10:41:36;34.88;;;14.38;;
70929;SDS011;58588;48.102;19.682;2023-02-13T10:44:53;25.83;;;10.90;;
70929;SDS011;58588;48.102;19.682;2023-02-13T10:48:05;32.22;;;14.75;;
70929;SDS011;58588;48.102;19.682;2023-02-13T10:51:18;35.30;;;14.07;;
70929;SDS011;58588;48.102;19.682;2023-02-13T10:54:33;26.17;;;10.93;;
70929;SDS011;58588;48.102;19.682;2023-02-13T10:57:56;23.98;;;9.90;;
70929;SDS011;58588;48.102;19.682;2023-02-13T11:01:08;35.30;;;14.40;;
70929;SDS011;58588;48.102;19.682;2023-02-13T11:04:18;26.50;;;12.15;;
70929;SDS011;58588;48.102;19.682;2023-02-13T11:07:22;32.83;;;13.70;;
70929;SDS011;58588;48.102;19.682;2023-02-13T11:10:26;29.42;;;13.18;;
70929;SDS011;58588;48.102;19.682;2023-02-13T11:13:29;32.75;;;13.70;;
70929;SDS011;58588;48.102;19.682;2023-02-13T11:16:37;25.23;;;10.50;;
70929;SDS011;58588;48.102;19.682;2023-02-13T11:19:46;28.35;;;11.98;;
70929;SDS011;58588;48.102;19.682;2023-02-13T11:22:51;28.38;;;12.07;;
70929;SDS011;58588;48.102;19.682;2023-02-13T11:25:58;31.38;;;12.88;;
70929;SDS011;58588;48.102;19.682;2023-02-13T11:29:03;24.83;;;9.80;;
70929;SDS011;58588;48.102;19.682;2023-02-13T11:32:17;23.43;;;9.50;;
70929;SDS011;58588;48.102;19.682;2023-02-13T11:35:26;22.75;;;9.30;;
70929;SDS011;58588;48.102;19.682;2023-02-13T11:38:29;23.48;;;10.38;;
70929;SDS011;58588;48.102;19.682;2023-02-13T11:41:36;25.95;;;9.88;;
70929;SDS011;58588;48.102;19.682;2023-02-13T11:44:41;22.90;;;9.13;;
70929;SDS011;58588;48.102;19.682;2023-02-13T11:47:45;27.20;;;11.70;;
70929;SDS011;58588;48.102;19.682;2023-02-13T11:50:50;27.67;;;10.75;;
70929;SDS011;58588;48.102;19.682;2023-02-13T11:53:53;25.60;;;9.40;;
70929;SDS011;58588;48.102;19.682;2023-02-13T11:57:00;23.73;;;10.30;;
70929;SDS011;58588;48.102;19.682;2023-02-13T12:03:27;15.33;;;6.50;;
70929;SDS011;58588;48.102;19.682;2023-02-13T12:06:31;18.48;;;7.47;;
70929;SDS011;58588;48.102;19.682;2023-02-13T12:09:39;19.20;;;8.25;;
70929;SDS011;58588;48.102;19.682;2023-02-13T12:12:44;18.52;;;7.78;;
70929;SDS011;58588;48.102;19.682;2023-02-13T12:15:54;19.55;;;7.38;;
70929;SDS011;58588;48.102;19.682;2023-02-13T12:19:02;11.97;;;4.80;;
70929;SDS011;58588;48.102;19.682;2023-02-13T12:22:20;13.82;;;5.20;;
70929;SDS011;58588;48.102;19.682;2023-02-13T12:25:42;13.05;;;4.88;;
70929;SDS011;58588;48.102;19.682;2023-02-13T12:29:02;13.38;;;5.32;;
70929;SDS011;58588;48.102;19.682;2023-02-13T12:32:17;14.52;;;5.68;;
70929;SDS011;58588;48.102;19.682;2023-02-13T12:35:29;13.43;;;5.37;;
70929;SDS011;58588;48.102;19.682;2023-02-13T12:38:51;18.10;;;5.28;;
70929;SDS011;58588;48.102;19.682;2023-02-13T12:42:15;20.60;;;8.35;;
70929;SDS011;58588;48.102;19.682;2023-02-13T12:45:29;19.70;;;8.07;;
70929;SDS011;58588;48.102;19.682;2023-02-13T12:48:37;18.05;;;7.97;;
70929;SDS011;58588;48.102;19.682;2023-02-13T12:51:49;25.80;;;9.53;;
70929;SDS011;58588;48.102;19.682;2023-02-13T12:55:01;17.95;;;7.80;;
70929;SDS011;58588;48.102;19.682;2023-02-13T12:58:29;22.27;;;8.70;;
70929;SDS011;58588;48.102;19.682;2023-02-13T13:01:56;20.88;;;9.05;;
70929;SDS011;58588;48.102;19.682;2023-02-13T13:05:22;22.98;;;8.90;;
70929;SDS011;58588;48.102;19.682;2023-02-13T13:08:35;32.27;;;13.57;;
70929;SDS011;58588;48.102;19.682;2023-02-13T13:11:59;19.17;;;7.45;;
70929;SDS011;58588;48.102;19.682;2023-02-13T13:15:29;19.35;;;8.18;;
70929;SDS011;58588;48.102;19.682;2023-02-13T13:18:40;21.73;;;8.70;;
70929;SDS011;58588;48.102;19.682;2023-02-13T13:21:53;21.85;;;7.95;;
70929;SDS011;58588;48.102;19.682;2023-02-13T13:25:03;18.43;;;7.40;;
70929;SDS011;58588;48.102;19.682;2023-02-13T13:28:14;16.55;;;7.25;;
70929;SDS011;58588;48.102;19.682;2023-02-13T13:31:19;18.50;;;7.68;;
70929;SDS011;58588;48.102;19.682;2023-02-13T13:34:28;17.90;;;7.03;;
70929;SDS011;58588;48.102;19.682;2023-02-13T13:37:32;19.38;;;6.70;;
70929;SDS011;58588;48.102;19.682;2023-02-13T13:40:39;16.63;;;6.60;;
70929;SDS011;58588;48.102;19.682;2023-02-13T13:43:53;19.45;;;7.75;;
70929;SDS011;58588;48.102;19.682;2023-02-13T13:47:05;20.23;;;7.68;;
70929;SDS011;58588;48.102;19.682;2023-02-13T13:50:20;19.38;;;7.38;;
70929;SDS011;58588;48.102;19.682;2023-02-13T13:53:24;20.67;;;8.23;;
70929;SDS011;58588;48.102;19.682;2023-02-13T13:56:26;21.60;;;9.17;;
70929;SDS011;58588;48.102;19.682;2023-02-13T14:03:35;18.98;;;7.82;;
70929;SDS011;58588;48.102;19.682;2023-02-13T14:17:52;21.35;;;9.10;;
70929;SDS011;58588;48.102;19.682;2023-02-13T14:20:56;27.98;;;11.35;;
70929;SDS011;58588;48.102;19.682;2023-02-13T14:24:01;21.90;;;8.82;;
70929;SDS011;58588;48.102;19.682;2023-02-13T14:27:18;21.67;;;8.02;;
70929;SDS011;58588;48.102;19.682;2023-02-13T14:30:25;21.97;;;9.80;;
70929;SDS011;58588;48.102;19.682;2023-02-13T14:33:29;19.15;;;8.57;;
70929;SDS011;58588;48.102;19.682;2023-02-13T14:36:33;25.20;;;7.82;;
70929;SDS011;58588;48.102;19.682;2023-02-13T14:39:38;18.25;;;6.88;;
70929;SDS011;58588;48.102;19.682;2023-02-13T14:42:50;18.23;;;7.63;;
70929;SDS011;58588;48.102;19.682;2023-02-13T14:46:15;20.50;;;7.13;;
70929;SDS011;58588;48.102;19.682;2023-02-13T14:49:52;18.73;;;7.43;;
70929;SDS011;58588;48.102;19.682;2023-02-13T14:52:58;20.45;;;8.43;;
70929;SDS011;58588;48.102;19.682;2023-02-13T14:56:06;21.63;;;8.25;;
70929;SDS011;58588;48.102;19.682;2023-02-13T14:59:28;17.85;;;7.03;;
70929;SDS011;58588;48.102;19.682;2023-02-13T15:02:34;16.93;;;7.37;;
70929;SDS011;58588;48.102;19.682;2023-02-13T15:05:44;17.38;;;7.00;;
70929;SDS011;58588;48.102;19.682;2023-02-13T15:08:52;16.25;;;7.13;;
70929;SDS011;58588;48.102;19.682;2023-02-13T15:11:56;17.80;;;7.50;;
70929;SDS011;58588;48.102;19.682;2023-02-13T15:14:59;15.48;;;6.68;;
70929;SDS011;58588;48.102;19.682;2023-02-13T15:18:03;16.70;;;7.07;;
70929;SDS011;58588;48.102;19.682;2023-02-13T15:21:10;16.00;;;7.05;;
70929;SDS011;58588;48.102;19.682;2023-02-13T15:24:17;16.80;;;7.45;;
70929;SDS011;58588;48.102;19.682;2023-02-13T15:27:27;17.88;;;7.32;;
70929;SDS011;58588;48.102;19.682;2023-02-13T15:30:52;18.48;;;7.90;;
70929;SDS011;58588;48.102;19.682;2023-02-13T15:33:55;19.10;;;7.77;;
70929;SDS011;58588;48.102;19.682;2023-02-13T15:36:58;18.95;;;8.23;;
70929;SDS011;58588;48.102;19.682;2023-02-13T15:40:12;17.98;;;7.70;;
70929;SDS011;58588;48.102;19.682;2023-02-13T15:43:19;23.83;;;8.15;;
70929;SDS011;58588;48.102;19.682;2023-02-13T15:46:26;27.08;;;10.45;;
70929;SDS011;58588;48.102;19.682;2023-02-13T15:49:31;20.83;;;8.17;;
70929;SDS011;58588;48.102;19.682;2023-02-13T15:52:39;22.02;;;8.07;;
70929;SDS011;58588;48.102;19.682;2023-02-13T15:55:53;18.25;;;7.93;;
70929;SDS011;58588;48.102;19.682;2023-02-13T15:58:58;46.30;;;21.95;;
70929;SDS011;58588;48.102;19.682;2023-02-13T16:02:02;28.52;;;14.20;;
70929;SDS011;58588;48.102;19.682;2023-02-13T16:05:08;50.13;;;20.00;;
70929;SDS011;58588;48.102;19.682;2023-02-13T16:08:24;70.47;;;33.17;;
70929;SDS011;58588;48.102;19.682;2023-02-13T16:11:29;30.90;;;12.95;;
70929;SDS011;58588;48.102;19.682;2023-02-13T16:14:36;24.98;;;9.48;;
70929;SDS011;58588;48.102;19.682;2023-02-13T16:17:48;30.02;;;12.40;;
70929;SDS011;58588;48.102;19.682;2023-02-13T16:20:52;31.33;;;12.53;;
70929;SDS011;58588;48.102;19.682;2023-02-13T16:23:58;41.72;;;11.90;;
70929;SDS011;58588;48.102;19.682;2023-02-13T16:27:03;26.05;;;9.63;;
70929;SDS011;58588;48.102;19.682;2023-02-13T16:34:26;30.33;;;13.05;;
70929;SDS011;58588;48.102;19.682;2023-02-13T16:37:30;28.53;;;10.10;;
70929;SDS011;58588;48.102;19.682;2023-02-13T16:40:34;29.65;;;11.57;;
70929;SDS011;58588;48.102;19.682;2023-02-13T16:43:39;32.05;;;11.82;;
70929;SDS011;58588;48.102;19.682;2023-02-13T16:46:46;28.33;;;11.43;;
70929;SDS011;58588;48.102;19.682;2023-02-13T16:49:53;46.53;;;19.08;;
70929;SDS011;58588;48.102;19.682;2023-02-13T16:52:58;53.83;;;24.27;;
70929;SDS011;58588;48.102;19.682;2023-02-13T16:56:03;80.38;;;33.30;;
70929;SDS011;58588;48.102;19.682;2023-02-13T17:02:49;63.75;;;26.63;;
70929;SDS011;58588;48.102;19.682;2023-02-13T17:05:52;51.42;;;19.88;;
70929;SDS011;58588;48.102;19.682;2023-02-13T17:08:55;50.70;;;21.40;;
70929;SDS011;58588;48.102;19.682;2023-02-13T17:11:57;56.05;;;23.73;;
70929;SDS011;58588;48.102;19.682;2023-02-13T17:14:59;55.83;;;25.30;;
70929;SDS011;58588;48.102;19.682;2023-02-13T17:18:01;98.72;;;36.08;;
70929;SDS011;58588;48.102;19.682;2023-02-13T17:21:05;95.10;;;35.63;;
70929;SDS011;58588;48.102;19.682;2023-02-13T17:24:08;67.73;;;30.47;;
70929;SDS011;58588;48.102;19.682;2023-02-13T17:27:17;65.30;;;30.70;;
70929;SDS011;58588;48.102;19.682;2023-02-13T17:30:19;66.15;;;28.85;;
70929;SDS011;58588;48.102;19.682;2023-02-13T17:33:23;92.97;;;38.20;;
70929;SDS011;58588;48.102;19.682;2023-02-13T17:36:28;93.53;;;36.97;;
70929;SDS011;58588;48.102;19.682;2023-02-13T17:39:30;70.43;;;28.77;;
70929;SDS011;58588;48.102;19.682;2023-02-13T17:42:34;71.50;;;31.33;;
70929;SDS011;58588;48.102;19.682;2023-02-13T17:45:37;61.08;;;27.48;;
70929;SDS011;58588;48.102;19.682;2023-02-13T17:48:39;61.55;;;27.23;;
70929;SDS011;58588;48.102;19.682;2023-02-13T17:51:43;65.88;;;28.38;;
70929;SDS011;58588;48.102;19.682;2023-02-13T17:54:45;59.57;;;27.93;;
70929;SDS011;58588;48.102;19.682;2023-02-13T17:57:50;59.28;;;25.50;;
70929;SDS011;58588;48.102;19.682;2023-02-13T18:01:07;53.95;;;23.65;;
70929;SDS011;58588;48.102;19.682;2023-02-13T18:04:10;69.03;;;29.48;;
70929;SDS011;58588;48.102;19.682;2023-02-13T18:07:15;72.13;;;29.40;;
70929;SDS011;58588;48.102;19.682;2023-02-13T18:10:18;57.93;;;25.17;;
70929;SDS011;58588;48.102;19.682;2023-02-13T18:13:26;69.53;;;31.73;;
70929;SDS011;58588;48.102;19.682;2023-02-13T18:16:33;67.22;;;28.60;;
70929;SDS011;58588;48.102;19.682;2023-02-13T18:19:35;72.05;;;31.88;;
70929;SDS011;58588;48.102;19.682;2023-02-13T18:22:39;68.00;;;31.58;;
70929;SDS011;58588;48.102;19.682;2023-02-13T18:25:41;93.77;;;38.60;;
70929;SDS011;58588;48.102;19.682;2023-02-13T18:28:43;104.72;;;42.65;;
70929;SDS011;58588;48.102;19.682;2023-02-13T18:31:45;97.95;;;40.40;;
70929;SDS011;58588;48.102;19.682;2023-02-13T18:38:55;99.13;;;42.80;;